createdAt,value
2018-11-29T00:00:30.017Z,82.21
2018-11-29T00:02:58.187Z,82.29
2018-11-29T00:05:26.335Z,82.08
2018-11-29T00:07:54.551Z,81.94
2018-11-29T00:10:22.688Z,82.15
2018-11-29T00:12:50.839Z,81.90
2018-11-29T00:15:18.989Z,81.76
2018-11-29T00:17:47.153Z,82.24
2018-11-29T00:20:16.309Z,82.17
2018-11-29T00:22:45.310Z,82.92
2018-11-29T00:25:14.414Z,82.79
2018-11-29T00:27:42.762Z,82.47
2018-11-29T00:30:17.026Z,82.07
2018-11-29T00:32:45.168Z,82.71
2018-11-29T00:35:14.202Z,82.43
2018-11-29T00:37:42.422Z,82.68
2018-11-29T00:40:15.573Z,82.17
2018-11-29T00:42:43.781Z,82.23
2018-11-29T00:45:13.001Z,82.48
2018-11-29T00:47:41.349Z,82.00
2018-11-29T00:50:14.429Z,81.98
2018-11-29T00:52:43.484Z,82.38
2018-11-29T00:55:12.766Z,82.68
2018-11-29T00:57:40.997Z,82.87
2018-11-29T01:00:15.209Z,82.54
2018-11-29T01:02:43.445Z,82.87
2018-11-29T01:05:11.705Z,82.55
2018-11-29T01:07:39.904Z,82.37
2018-11-29T01:10:13.154Z,82.31
2018-11-29T01:12:41.449Z,82.50
2018-11-29T01:15:10.993Z,82.31
2018-11-29T01:17:39.166Z,82.33
2018-11-29T01:20:09.250Z,82.32
2018-11-29T01:22:37.420Z,82.17
2018-11-29T01:25:06.632Z,81.83
2018-11-29T01:27:34.789Z,82.18
2018-11-29T01:30:02.970Z,82.45
2018-11-29T01:32:31.112Z,81.72
2018-11-29T01:34:59.258Z,82.30
2018-11-29T01:37:27.497Z,82.35
2018-11-29T01:39:55.637Z,81.74
2018-11-29T01:42:23.840Z,81.65
2018-11-29T01:44:51.996Z,81.91
2018-11-29T01:47:20.158Z,81.86
2018-11-29T01:49:48.326Z,82.05
2018-11-29T01:52:16.501Z,82.59
2018-11-29T01:54:44.781Z,81.96
2018-11-29T01:57:12.996Z,81.73
2018-11-29T01:59:41.144Z,81.95
2018-11-29T02:02:09.301Z,82.00
2018-11-29T02:04:37.456Z,82.28
2018-11-29T02:07:05.597Z,81.95
2018-11-29T02:09:33.788Z,82.05
2018-11-29T02:12:01.941Z,81.98
2018-11-29T02:14:30.095Z,82.26
2018-11-29T02:16:58.242Z,82.48
2018-11-29T02:19:26.424Z,81.87
2018-11-29T02:21:54.573Z,82.22
2018-11-29T02:24:22.721Z,82.46
2018-11-29T02:26:50.876Z,82.31
2018-11-29T02:29:19.043Z,81.65
2018-11-29T02:31:47.175Z,82.56
2018-11-29T02:34:15.317Z,82.49
2018-11-29T02:36:43.542Z,81.78
2018-11-29T02:39:11.694Z,81.61
2018-11-29T02:41:39.859Z,82.20
2018-11-29T02:44:08.007Z,82.17
2018-11-29T02:46:36.156Z,82.28
2018-11-29T02:49:04.324Z,81.87
2018-11-29T02:51:32.483Z,82.42
2018-11-29T02:54:00.669Z,82.39
2018-11-29T02:56:28.881Z,82.14
2018-11-29T02:58:58.824Z,82.72
2018-11-29T03:01:26.995Z,81.62
2018-11-29T03:03:55.301Z,82.28
2018-11-29T03:06:23.913Z,82.21
2018-11-29T03:08:52.096Z,82.10
2018-11-29T03:11:20.277Z,81.63
2018-11-29T03:13:48.427Z,82.11
2018-11-29T03:16:16.553Z,82.82
2018-11-29T03:18:44.701Z,81.93
2018-11-29T03:21:12.873Z,81.93
2018-11-29T03:23:41.052Z,82.19
2018-11-29T03:26:09.203Z,82.22
2018-11-29T03:28:37.348Z,81.81
2018-11-29T03:31:05.590Z,81.60
2018-11-29T03:33:33.770Z,82.28
2018-11-29T03:36:01.918Z,82.03
2018-11-29T03:38:30.082Z,81.74
2018-11-29T03:40:58.262Z,82.15
2018-11-29T03:43:26.421Z,81.74
2018-11-29T03:45:54.609Z,81.36
2018-11-29T03:48:22.810Z,81.80
2018-11-29T03:50:50.940Z,81.99
2018-11-29T03:53:19.224Z,82.01
2018-11-29T03:55:47.414Z,81.83
2018-11-29T03:58:15.571Z,81.34
2018-11-29T04:00:43.717Z,81.43
2018-11-29T04:03:11.861Z,81.67
2018-11-29T04:05:40.081Z,82.39
2018-11-29T04:08:08.278Z,81.38
2018-11-29T04:10:36.504Z,82.10
2018-11-29T04:13:04.778Z,81.57
2018-11-29T04:15:32.962Z,82.29
2018-11-29T04:18:01.146Z,81.68
2018-11-29T04:20:29.320Z,82.31
2018-11-29T04:22:57.485Z,82.41
2018-11-29T04:25:25.664Z,81.95
2018-11-29T04:27:53.837Z,82.31
2018-11-29T04:30:22.062Z,82.30
2018-11-29T04:32:50.308Z,82.19
2018-11-29T04:35:18.522Z,82.68
2018-11-29T04:37:46.661Z,81.85
2018-11-29T04:40:15.732Z,81.63
2018-11-29T04:42:43.969Z,82.20
2018-11-29T04:45:13.090Z,81.93
2018-11-29T04:47:41.244Z,81.89
2018-11-29T04:50:09.509Z,82.04
2018-11-29T04:52:37.666Z,81.97
2018-11-29T04:55:06.601Z,81.82
2018-11-29T04:57:34.757Z,82.08
2018-11-29T05:00:02.951Z,81.51
2018-11-29T05:02:31.094Z,82.07
2018-11-29T05:04:59.405Z,81.77
2018-11-29T05:07:27.541Z,82.15
2018-11-29T05:09:55.684Z,81.99
2018-11-29T05:12:23.906Z,82.11
2018-11-29T05:14:52.055Z,82.52
2018-11-29T05:17:20.235Z,81.66
2018-11-29T05:19:48.398Z,82.20
2018-11-29T05:22:16.536Z,81.71
2018-11-29T05:24:44.742Z,82.03
2018-11-29T05:27:12.888Z,82.38
2018-11-29T05:29:41.029Z,82.29
2018-11-29T05:32:09.178Z,82.47
2018-11-29T05:34:37.358Z,81.48
2018-11-29T05:37:06.474Z,81.95
2018-11-29T05:39:34.696Z,82.09
2018-11-29T05:42:02.862Z,81.92
2018-11-29T05:44:31.117Z,82.43
2018-11-29T05:46:59.267Z,81.75
2018-11-29T05:49:27.418Z,82.33
2018-11-29T05:51:55.580Z,81.86
2018-11-29T05:54:23.737Z,82.27
2018-11-29T05:56:51.894Z,81.56
2018-11-29T05:59:20.133Z,82.64
2018-11-29T06:01:49.198Z,82.47
2018-11-29T06:04:17.384Z,82.15
2018-11-29T06:06:45.572Z,81.96
2018-11-29T06:09:13.709Z,81.72
2018-11-29T06:11:41.852Z,82.17
2018-11-29T06:14:10.041Z,81.26
2018-11-29T06:16:38.552Z,81.26
2018-11-29T06:19:07.998Z,81.54
2018-11-29T06:21:36.148Z,82.10
2018-11-29T06:24:04.774Z,81.72
2018-11-29T06:26:32.945Z,82.04
2018-11-29T06:29:01.220Z,81.38
2018-11-29T06:31:29.365Z,81.29
2018-11-29T06:33:57.602Z,82.19
2018-11-29T06:36:25.742Z,81.44
2018-11-29T06:38:54.633Z,81.84
2018-11-29T06:41:24.564Z,81.72
2018-11-29T06:43:52.785Z,81.15
2018-11-29T06:46:21.129Z,80.69
2018-11-29T06:48:49.348Z,81.57
2018-11-29T06:51:17.502Z,80.92
2018-11-29T06:53:50.981Z,81.55
2018-11-29T06:56:19.252Z,81.37
2018-11-29T06:58:47.428Z,80.75
2018-11-29T07:01:15.564Z,80.25
2018-11-29T07:03:43.802Z,80.12
2018-11-29T07:06:11.967Z,80.08
2018-11-29T07:08:40.159Z,80.45
2018-11-29T07:11:08.370Z,80.94
2018-11-29T07:13:36.530Z,80.42
2018-11-29T07:16:04.702Z,80.38
2018-11-29T07:18:32.869Z,80.46
2018-11-29T07:21:12.375Z,80.09
2018-11-29T07:23:40.560Z,79.73
2018-11-29T07:26:08.729Z,80.12
2018-11-29T07:28:36.945Z,80.25
2018-11-29T07:31:05.215Z,80.24
2018-11-29T07:33:33.391Z,80.58
2018-11-29T07:36:01.520Z,79.62
2018-11-29T07:38:29.724Z,80.00
2018-11-29T07:40:57.953Z,80.07
2018-11-29T07:43:26.146Z,79.97
2018-11-29T07:45:54.349Z,80.53
2018-11-29T07:48:22.525Z,80.34
2018-11-29T07:50:50.704Z,80.34
2018-11-29T07:53:18.860Z,79.82
2018-11-29T07:55:47.180Z,80.00
2018-11-29T07:58:15.361Z,80.36
2018-11-29T08:00:43.579Z,80.27
2018-11-29T08:03:11.738Z,80.11
2018-11-29T08:05:39.949Z,79.72
2018-11-29T08:08:08.119Z,79.43
2018-11-29T08:10:36.325Z,79.31
2018-11-29T08:13:04.765Z,79.56
2018-11-29T08:15:33.162Z,79.82
2018-11-29T08:18:01.350Z,79.00
2018-11-29T08:20:29.621Z,78.92
2018-11-29T08:22:57.864Z,79.22
2018-11-29T08:25:26.128Z,78.99
2018-11-29T08:27:54.320Z,79.17
2018-11-29T08:30:23.113Z,78.64
2018-11-29T08:32:51.260Z,78.99
2018-11-29T08:35:19.570Z,79.07
2018-11-29T08:37:48.017Z,79.25
2018-11-29T08:40:17.438Z,78.32
2018-11-29T08:42:45.707Z,78.35
2018-11-29T08:45:13.996Z,78.43
2018-11-29T08:47:42.205Z,78.67
2018-11-29T08:50:12.596Z,78.44
2018-11-29T08:52:41.687Z,79.03
2018-11-29T08:55:15.209Z,78.96
2018-11-29T08:57:43.437Z,78.67
2018-11-29T09:00:15.857Z,78.60
2018-11-29T09:02:44.153Z,78.97
2018-11-29T09:05:13.022Z,79.70
2018-11-29T09:07:41.620Z,80.07
2018-11-29T09:10:11.096Z,79.78
2018-11-29T09:12:39.325Z,79.99
2018-11-29T09:15:09.358Z,79.63
2018-11-29T09:17:37.561Z,79.76
2018-11-29T09:20:08.372Z,80.13
2018-11-29T09:22:36.658Z,80.03
2018-11-29T09:25:06.488Z,80.07
2018-11-29T09:27:34.759Z,80.76
2018-11-29T09:30:03.037Z,81.09
2018-11-29T09:32:31.229Z,80.73
2018-11-29T09:34:59.440Z,80.51
2018-11-29T09:37:27.684Z,80.75
2018-11-29T09:39:55.848Z,80.25
2018-11-29T09:42:24.127Z,80.64
2018-11-29T09:44:52.296Z,80.33
2018-11-29T09:47:20.444Z,80.62
2018-11-29T09:49:48.634Z,81.43
2018-11-29T09:52:16.804Z,80.75
2018-11-29T09:54:44.957Z,81.04
2018-11-29T09:57:13.144Z,80.85
2018-11-29T09:59:41.328Z,80.99
2018-11-29T10:02:09.538Z,81.57
2018-11-29T10:04:37.697Z,80.53
2018-11-29T10:07:06.198Z,80.70
2018-11-29T10:09:34.401Z,80.43
2018-11-29T10:12:02.546Z,80.22
2018-11-29T10:14:30.728Z,81.09
2018-11-29T10:16:58.950Z,81.11
2018-11-29T10:19:27.157Z,81.49
2018-11-29T10:21:55.341Z,81.29
2018-11-29T10:24:23.505Z,81.00
2018-11-29T10:26:51.684Z,80.86
2018-11-29T10:29:19.873Z,81.02
2018-11-29T10:31:48.025Z,81.04
2018-11-29T10:34:16.185Z,81.12
2018-11-29T10:36:44.363Z,81.43
2018-11-29T10:39:12.543Z,81.16
2018-11-29T10:41:40.710Z,82.19
2018-11-29T10:44:08.848Z,81.98
2018-11-29T10:46:37.049Z,82.23
2018-11-29T10:49:05.214Z,81.47
2018-11-29T10:51:33.356Z,82.41
2018-11-29T10:54:01.567Z,81.47
2018-11-29T10:56:29.725Z,81.96
2018-11-29T10:58:57.889Z,81.39
2018-11-29T11:01:31.349Z,82.19
2018-11-29T11:04:00.348Z,81.87
2018-11-29T11:06:28.533Z,81.89
2018-11-29T11:08:56.733Z,82.88
2018-11-29T11:11:24.909Z,83.14
2018-11-29T11:13:53.049Z,82.32
2018-11-29T11:16:21.226Z,82.81
2018-11-29T11:18:49.380Z,82.67
2018-11-29T11:21:17.578Z,82.31
2018-11-29T11:23:45.742Z,82.66
2018-11-29T11:26:13.936Z,82.71
2018-11-29T11:28:42.081Z,82.75
2018-11-29T11:31:11.118Z,83.14
2018-11-29T11:33:39.340Z,83.17
2018-11-29T11:36:07.525Z,83.62
2018-11-29T11:38:35.679Z,83.61
2018-11-29T11:41:03.861Z,83.09
2018-11-29T11:43:32.034Z,83.51
2018-11-29T11:46:00.235Z,83.93
2018-11-29T11:48:28.377Z,83.95
2018-11-29T11:50:56.541Z,84.18
2018-11-29T11:53:24.717Z,83.39
2018-11-29T11:55:53.707Z,83.52
2018-11-29T11:58:21.056Z,83.37
2018-11-29T12:00:49.250Z,83.21
2018-11-29T12:03:17.588Z,83.90
2018-11-29T12:05:45.806Z,82.93
2018-11-29T12:08:13.936Z,83.96
2018-11-29T12:10:43.191Z,83.42
2018-11-29T12:13:11.397Z,83.54
2018-11-29T12:15:39.625Z,83.35
2018-11-29T12:18:10.189Z,84.08
2018-11-29T12:20:38.410Z,83.14
2018-11-29T12:23:07.541Z,82.13
2018-11-29T12:25:35.693Z,82.65
2018-11-29T12:28:03.917Z,82.62
2018-11-29T12:30:33.809Z,82.51
2018-11-29T12:33:03.110Z,82.35
2018-11-29T12:35:31.429Z,81.90
2018-11-29T12:38:00.171Z,81.22
2018-11-29T12:40:28.665Z,82.19
2018-11-29T12:42:57.090Z,81.59
2018-11-29T12:45:25.380Z,81.92
2018-11-29T12:47:53.574Z,82.26
2018-11-29T12:50:25.105Z,81.63
2018-11-29T12:52:53.593Z,82.23
2018-11-29T12:55:23.006Z,82.98
2018-11-29T12:58:04.714Z,82.85
2018-11-29T13:00:26.373Z,82.93
2018-11-29T13:02:57.834Z,82.36
2018-11-29T13:05:27.813Z,82.50
2018-11-29T13:08:03.371Z,82.40
2018-11-29T13:10:38.248Z,82.38
2018-11-29T13:13:09.118Z,81.46
2018-11-29T13:15:39.964Z,82.28
2018-11-29T13:18:12.064Z,81.76
2018-11-29T13:20:42.128Z,81.81
2018-11-29T13:23:13.699Z,81.78
2018-11-29T13:25:41.969Z,81.33
2018-11-29T13:28:13.969Z,81.97
2018-11-29T13:30:44.633Z,81.66
2018-11-29T13:33:15.141Z,81.88
2018-11-29T13:35:45.666Z,81.93
2018-11-29T13:38:21.109Z,81.77
2018-11-29T13:40:51.060Z,81.82
2018-11-29T13:43:18.408Z,81.94
2018-11-29T13:45:46.876Z,82.59
2018-11-29T13:48:19.949Z,81.87
2018-11-29T13:50:50.271Z,81.77
2018-11-29T13:53:21.465Z,82.38
2018-11-29T13:55:50.278Z,81.73
2018-11-29T13:58:18.603Z,81.01
2018-11-29T14:00:47.115Z,81.29
2018-11-29T14:03:15.762Z,81.15
2018-11-29T14:05:44.029Z,81.26
2018-11-29T14:08:12.363Z,80.86
2018-11-29T14:10:41.837Z,80.81
2018-11-29T14:13:10.152Z,80.92
2018-11-29T14:15:38.585Z,80.95
2018-11-29T14:18:07.278Z,80.35
2018-11-29T14:20:35.654Z,80.95
2018-11-29T14:23:03.576Z,81.05
2018-11-29T14:25:31.733Z,80.08
2018-11-29T14:27:59.873Z,80.66
2018-11-29T14:30:28.874Z,79.89
2018-11-29T14:33:00.117Z,80.38
2018-11-29T14:35:28.257Z,80.52
2018-11-29T14:37:56.436Z,80.95
2018-11-29T14:40:25.773Z,80.87
2018-11-29T14:42:54.076Z,80.09
2018-11-29T14:45:24.373Z,81.20
2018-11-29T14:47:52.570Z,80.75
2018-11-29T14:50:24.056Z,80.37
2018-11-29T14:52:52.228Z,80.69
2018-11-29T14:55:21.705Z,80.18
2018-11-29T14:57:48.593Z,80.33
2018-11-29T15:00:16.765Z,80.40
2018-11-29T15:02:44.925Z,79.77
2018-11-29T15:05:15.672Z,79.99
2018-11-29T15:07:43.825Z,80.39
2018-11-29T15:10:18.442Z,80.47
2018-11-29T15:12:46.643Z,80.02
2018-11-29T15:15:14.852Z,80.45
2018-11-29T15:17:43.902Z,80.18
2018-11-29T15:20:16.654Z,80.08
2018-11-29T15:22:44.804Z,80.34
2018-11-29T15:25:12.965Z,80.44
2018-11-29T15:27:41.109Z,79.69
2018-11-29T15:30:16.832Z,79.79
2018-11-29T15:32:45.144Z,79.98
2018-11-29T15:35:13.325Z,80.05
2018-11-29T15:37:41.473Z,79.78
2018-11-29T15:40:12.051Z,79.28
2018-11-29T15:42:40.661Z,79.76
2018-11-29T15:45:11.213Z,80.04
2018-11-29T15:47:39.385Z,79.22
2018-11-29T15:50:10.961Z,79.64
2018-11-29T15:52:39.149Z,78.98
2018-11-29T15:55:10.303Z,79.09
2018-11-29T15:57:38.513Z,78.64
2018-11-29T16:00:37.834Z,79.13
2018-11-29T16:03:07.521Z,79.34
2018-11-29T16:05:35.785Z,78.85
2018-11-29T16:08:03.929Z,78.95
2018-11-29T16:10:32.078Z,78.54
2018-11-29T16:13:00.224Z,78.85
2018-11-29T16:15:28.415Z,79.14
2018-11-29T16:17:56.625Z,79.24
2018-11-29T16:20:26.951Z,79.55
2018-11-29T16:22:55.164Z,79.64
2018-11-29T16:25:23.337Z,79.35
2018-11-29T16:27:51.498Z,80.46
2018-11-29T16:30:32.693Z,79.56
2018-11-29T16:33:04.596Z,79.37
2018-11-29T16:35:32.760Z,79.43
2018-11-29T16:38:00.905Z,78.88
2018-11-29T16:40:29.052Z,78.89
2018-11-29T16:42:57.204Z,78.13
2018-11-29T16:45:25.344Z,78.38
2018-11-29T16:47:53.506Z,79.17
2018-11-29T16:50:21.677Z,78.23
2018-11-29T16:52:49.832Z,78.70
2018-11-29T16:55:17.969Z,79.00
2018-11-29T16:57:48.152Z,77.89
2018-11-29T17:00:18.146Z,78.32
2018-11-29T17:02:46.293Z,79.21
2018-11-29T17:05:14.806Z,78.85
2018-11-29T17:07:42.969Z,78.54
2018-11-29T17:10:15.281Z,78.48
2018-11-29T17:12:44.973Z,78.39
2018-11-29T17:15:14.611Z,78.00
2018-11-29T17:17:42.746Z,76.31
2018-11-29T17:20:12.181Z,76.64
2018-11-29T17:22:40.417Z,76.75
2018-11-29T17:25:11.790Z,76.79
2018-11-29T17:27:40.005Z,76.72
2018-11-29T17:30:16.190Z,75.83
2018-11-29T17:32:44.464Z,76.10
2018-11-29T17:35:12.659Z,75.19
2018-11-29T17:37:40.831Z,75.59
2018-11-29T17:40:12.117Z,75.96
2018-11-29T17:42:40.444Z,75.98
2018-11-29T17:45:12.945Z,75.18
2018-11-29T17:47:42.038Z,76.02
2018-11-29T17:50:12.162Z,76.13
2018-11-29T17:52:40.357Z,75.47
2018-11-29T17:55:08.606Z,75.82
2018-11-29T17:57:36.801Z,76.19
2018-11-29T18:00:10.105Z,75.45
2018-11-29T18:02:38.288Z,75.05
2018-11-29T18:05:06.905Z,75.70
2018-11-29T18:07:35.049Z,75.06
2018-11-29T18:10:03.224Z,75.11
2018-11-29T18:12:31.381Z,75.13
2018-11-29T18:14:59.551Z,75.04
2018-11-29T18:17:27.749Z,75.24
2018-11-29T18:19:55.897Z,76.04
2018-11-29T18:22:24.045Z,75.94
2018-11-29T18:24:52.249Z,75.31
2018-11-29T18:27:20.401Z,75.53
2018-11-29T18:29:48.574Z,74.72
2018-11-29T18:32:16.709Z,75.07
2018-11-29T18:34:44.861Z,75.13
2018-11-29T18:37:13.024Z,74.92
2018-11-29T18:39:41.174Z,75.20
2018-11-29T18:42:09.336Z,74.28
2018-11-29T18:44:37.476Z,74.46
2018-11-29T18:47:05.897Z,74.91
2018-11-29T18:49:34.065Z,74.45
2018-11-29T18:52:02.202Z,74.84
2018-11-29T18:54:30.373Z,74.37
2018-11-29T18:56:58.536Z,73.97
2018-11-29T18:59:26.694Z,74.24
2018-11-29T19:01:55.260Z,73.92
2018-11-29T19:04:23.436Z,74.81
2018-11-29T19:06:51.598Z,74.31
2018-11-29T19:09:19.826Z,74.36
2018-11-29T19:11:48.013Z,74.15
2018-11-29T19:14:16.246Z,74.81
2018-11-29T19:16:44.438Z,74.90
2018-11-29T19:19:12.662Z,74.22
2018-11-29T19:21:40.748Z,73.89
2018-11-29T19:24:08.934Z,73.84
2018-11-29T19:26:37.132Z,74.52
2018-11-29T19:29:05.924Z,74.28
2018-11-29T19:31:34.340Z,73.32
2018-11-29T19:34:02.566Z,74.06
2018-11-29T19:36:30.817Z,74.42
2018-11-29T19:38:59.041Z,74.05
2018-11-29T19:41:27.197Z,73.73
2018-11-29T19:43:55.365Z,74.04
2018-11-29T19:46:23.509Z,73.48
2018-11-29T19:48:51.701Z,73.58
2018-11-29T19:51:19.848Z,74.08
2018-11-29T19:53:48.028Z,73.94
2018-11-29T19:56:16.173Z,73.61
2018-11-29T19:58:44.567Z,73.65
2018-11-29T20:01:12.565Z,73.07
2018-11-29T20:03:40.738Z,73.54
2018-11-29T20:06:08.905Z,73.62
2018-11-29T20:08:37.041Z,73.62
2018-11-29T20:11:05.661Z,74.22
2018-11-29T20:13:33.817Z,74.72
2018-11-29T20:16:02.018Z,74.03
2018-11-29T20:18:30.245Z,74.43
2018-11-29T20:20:58.421Z,75.21
2018-11-29T20:23:26.624Z,74.30
2018-11-29T20:25:54.945Z,75.14
2018-11-29T20:28:23.154Z,74.87
2018-11-29T20:30:51.381Z,74.99
2018-11-29T20:33:19.716Z,74.93
2018-11-29T20:35:47.903Z,74.95
2018-11-29T20:38:18.797Z,75.23
2018-11-29T20:40:47.310Z,74.96
2018-11-29T20:43:15.885Z,73.84
2018-11-29T20:45:47.546Z,74.36
2018-11-29T20:48:20.004Z,74.05
2018-11-29T20:50:48.707Z,73.76
2018-11-29T20:53:19.049Z,74.41
2018-11-29T20:55:47.323Z,74.28
2018-11-29T20:58:15.519Z,74.29
2018-11-29T21:00:44.528Z,73.52
2018-11-29T21:03:12.739Z,73.99
2018-11-29T21:05:42.693Z,73.31
2018-11-29T21:08:11.637Z,73.77
2018-11-29T21:10:39.877Z,73.57
2018-11-29T21:13:08.573Z,74.34
2018-11-29T21:15:38.029Z,73.50
2018-11-29T21:18:07.923Z,73.77
2018-11-29T21:20:36.584Z,73.46
2018-11-29T21:23:05.542Z,73.88
2018-11-29T21:25:33.701Z,74.09
2018-11-29T21:28:01.845Z,74.42
2018-11-29T21:30:30.165Z,74.66
2018-11-29T21:32:58.530Z,74.14
2018-11-29T21:35:26.714Z,74.18
2018-11-29T21:37:54.967Z,73.78
2018-11-29T21:40:27.767Z,74.63
2018-11-29T21:42:55.909Z,74.87
2018-11-29T21:45:24.083Z,74.34
2018-11-29T21:47:52.308Z,74.00
2018-11-29T21:50:20.529Z,74.19
2018-11-29T21:52:49.885Z,74.43
2018-11-29T21:55:18.138Z,75.53
2018-11-29T21:57:46.355Z,75.05
2018-11-29T22:00:15.801Z,75.85
2018-11-29T22:02:46.321Z,74.67
2018-11-29T22:05:14.522Z,75.51
2018-11-29T22:07:42.766Z,75.41
2018-11-29T22:10:10.917Z,75.52
2018-11-29T22:12:39.087Z,74.85
2018-11-29T22:15:09.748Z,75.13
2018-11-29T22:17:49.784Z,74.53
2018-11-29T22:20:17.970Z,74.26
2018-11-29T22:22:46.149Z,75.16
2018-11-29T22:25:14.405Z,75.35
2018-11-29T22:27:42.666Z,75.02
2018-11-29T22:30:10.851Z,75.26
2018-11-29T22:32:39.186Z,75.38
2018-11-29T22:35:08.666Z,74.95
2018-11-29T22:37:37.211Z,75.35
2018-11-29T22:40:05.736Z,75.21
2018-11-29T22:42:34.016Z,74.92
2018-11-29T22:45:02.248Z,75.23
2018-11-29T22:47:30.472Z,74.66
2018-11-29T22:49:58.704Z,74.64
2018-11-29T22:52:27.429Z,75.13
2018-11-29T22:54:55.681Z,75.09
2018-11-29T22:57:23.946Z,75.16
2018-11-29T22:59:52.285Z,75.30
2018-11-29T23:02:20.553Z,74.70
2018-11-29T23:04:48.807Z,75.06
2018-11-29T23:07:16.990Z,74.88
2018-11-29T23:09:45.184Z,74.54
2018-11-29T23:12:13.401Z,74.88
2018-11-29T23:14:41.625Z,75.21
2018-11-29T23:17:09.881Z,74.25
2018-11-29T23:19:38.084Z,74.45
2018-11-29T23:22:06.297Z,75.02
2018-11-29T23:24:35.336Z,74.49
2018-11-29T23:27:03.505Z,74.84
2018-11-29T23:29:31.701Z,75.12
2018-11-29T23:32:02.609Z,75.13
2018-11-29T23:34:30.921Z,74.48
2018-11-29T23:36:59.380Z,74.65
2018-11-29T23:39:28.523Z,74.41
2018-11-29T23:41:56.702Z,74.26
2018-11-29T23:44:24.962Z,74.24
2018-11-29T23:46:53.880Z,74.71
2018-11-29T23:49:22.059Z,74.16
2018-11-29T23:51:50.260Z,74.75
2018-11-29T23:54:18.489Z,74.49
2018-11-29T23:56:46.679Z,73.72
2018-11-29T23:59:14.860Z,74.59
